sensor_id;sensor_type;location;lat;lon;timestamp;temperature;humidity
16479;DHT22;8350;52.316;10.530;2023-11-21T09:20:45;6.40;99.90
16479;DHT22;8350;52.316;10.530;2023-11-21T09:23:18;6.40;99.90
16479;DHT22;8350;52.316;10.530;2023-11-21T09:25:45;6.40;99.90
16479;DHT22;8350;52.316;10.530;2023-11-21T09:28:15;6.50;99.90
16479;DHT22;8350;52.316;10.530;2023-11-21T09:30:43;6.50;99.90
16479;DHT22;8350;52.316;10.530;2023-11-21T09:33:10;6.50;99.90
16479;DHT22;8350;52.316;10.530;2023-11-21T09:35:37;6.50;99.90
16479;DHT22;8350;52.316;10.530;2023-11-21T09:38:06;6.60;99.90
16479;DHT22;8350;52.316;10.530;2023-11-21T09:40:35;6.60;99.90
16479;DHT22;8350;52.316;10.530;2023-11-21T09:43:06;6.60;99.90
16479;DHT22;8350;52.316;10.530;2023-11-21T09:45:46;6.70;99.90
16479;DHT22;8350;52.316;10.530;2023-11-21T09:48:24;6.80;99.90
16479;DHT22;8350;52.316;10.530;2023-11-21T09:50:54;6.90;99.90
16479;DHT22;8350;52.316;10.530;2023-11-21T09:53:24;6.90;99.90
16479;DHT22;8350;52.316;10.530;2023-11-21T09:55:53;6.90;99.90
16479;DHT22;8350;52.316;10.530;2023-11-21T09:58:21;7.00;99.90
16479;DHT22;8350;52.316;10.530;2023-11-21T10:00:59;7.10;99.90
16479;DHT22;8350;52.316;10.530;2023-11-21T10:03:28;7.10;99.90
16479;DHT22;8350;52.316;10.530;2023-11-21T10:05:56;7.10;99.90
16479;DHT22;8350;52.316;10.530;2023-11-21T10:08:35;7.00;99.90
16479;DHT22;8350;52.316;10.530;2023-11-21T10:11:05;6.90;99.90
16479;DHT22;8350;52.316;10.530;2023-11-21T10:13:33;6.90;99.90
16479;DHT22;8350;52.316;10.530;2023-11-21T10:16:02;6.90;99.90
16479;DHT22;8350;52.316;10.530;2023-11-21T10:18:32;7.00;99.90
16479;DHT22;8350;52.316;10.530;2023-11-21T10:21:08;7.10;99.90
16479;DHT22;8350;52.316;10.530;2023-11-21T10:23:37;7.00;99.90
16479;DHT22;8350;52.316;10.530;2023-11-21T10:26:11;7.10;99.90
16479;DHT22;8350;52.316;10.530;2023-11-21T10:28:44;7.10;99.90
16479;DHT22;8350;52.316;10.530;2023-11-21T10:31:31;7.00;99.90
16479;DHT22;8350;52.316;10.530;2023-11-21T10:34:13;7.10;99.90
16479;DHT22;8350;52.316;10.530;2023-11-21T10:36:53;7.10;99.90
16479;DHT22;8350;52.316;10.530;2023-11-21T10:39:31;7.20;99.90
16479;DHT22;8350;52.316;10.530;2023-11-21T10:42:01;7.20;99.90
16479;DHT22;8350;52.316;10.530;2023-11-21T10:44:33;7.20;99.90
16479;DHT22;8350;52.316;10.530;2023-11-21T10:47:00;7.30;99.90
16479;DHT22;8350;52.316;10.530;2023-11-21T10:49:37;7.20;99.90
16479;DHT22;8350;52.316;10.530;2023-11-21T10:52:07;7.10;99.90
16479;DHT22;8350;52.316;10.530;2023-11-21T10:54:42;7.00;99.90
16479;DHT22;8350;52.316;10.530;2023-11-21T10:57:10;6.90;99.90
16479;DHT22;8350;52.316;10.530;2023-11-21T10:59:41;6.90;99.90
16479;DHT22;8350;52.316;10.530;2023-11-21T11:02:18;7.00;99.90
16479;DHT22;8350;52.316;10.530;2023-11-21T11:04:48;6.90;99.90
16479;DHT22;8350;52.316;10.530;2023-11-21T11:07:16;7.00;99.90
16479;DHT22;8350;52.316;10.530;2023-11-21T11:09:44;6.90;99.90
16479;DHT22;8350;52.316;10.530;2023-11-21T11:12:12;6.90;99.90
16479;DHT22;8350;52.316;10.530;2023-11-21T11:14:44;6.90;99.90
16479;DHT22;8350;52.316;10.530;2023-11-21T11:17:17;7.00;99.90
16479;DHT22;8350;52.316;10.530;2023-11-21T11:19:47;6.90;99.90
16479;DHT22;8350;52.316;10.530;2023-11-21T11:22:24;6.90;99.90
16479;DHT22;8350;52.316;10.530;2023-11-21T11:25:19;7.00;99.90
16479;DHT22;8350;52.316;10.530;2023-11-21T11:27:54;7.10;99.90
16479;DHT22;8350;52.316;10.530;2023-11-21T11:30:35;7.10;99.90
16479;DHT22;8350;52.316;10.530;2023-11-21T11:33:12;7.20;99.90
16479;DHT22;8350;52.316;10.530;2023-11-21T11:35:46;7.20;99.90
16479;DHT22;8350;52.316;10.530;2023-11-21T11:38:18;7.20;99.90
16479;DHT22;8350;52.316;10.530;2023-11-21T11:40:47;7.20;99.90
16479;DHT22;8350;52.316;10.530;2023-11-21T11:43:25;7.10;99.90
16479;DHT22;8350;52.316;10.530;2023-11-21T11:45:53;7.10;99.90
16479;DHT22;8350;52.316;10.530;2023-11-21T11:48:23;7.10;99.90
16479;DHT22;8350;52.316;10.530;2023-11-21T11:51:06;7.10;99.90
16479;DHT22;8350;52.316;10.530;2023-11-21T11:53:39;7.10;99.90
16479;DHT22;8350;52.316;10.530;2023-11-21T11:56:23;7.20;99.90
16479;DHT22;8350;52.316;10.530;2023-11-21T11:58:54;7.30;99.90
16479;DHT22;8350;52.316;10.530;2023-11-21T12:01:22;7.20;99.90
16479;DHT22;8350;52.316;10.530;2023-11-21T12:07:00;7.20;99.90
16479;DHT22;8350;52.316;10.530;2023-11-21T12:09:30;7.20;99.90
16479;DHT22;8350;52.316;10.530;2023-11-21T12:11:59;7.30;99.90
16479;DHT22;8350;52.316;10.530;2023-11-21T12:14:27;7.30;99.90
16479;DHT22;8350;52.316;10.530;2023-11-21T12:16:54;7.30;99.90
16479;DHT22;8350;52.316;10.530;2023-11-21T12:19:21;7.30;99.90
16479;DHT22;8350;52.316;10.530;2023-11-21T12:21:49;7.30;99.90
16479;DHT22;8350;52.316;10.530;2023-11-21T12:24:16;7.20;99.90
16479;DHT22;8350;52.316;10.530;2023-11-21T12:26:43;7.20;99.90
16479;DHT22;8350;52.316;10.530;2023-11-21T12:29:12;7.20;99.90
16479;DHT22;8350;52.316;10.530;2023-11-21T12:31:39;7.20;99.90
16479;DHT22;8350;52.316;10.530;2023-11-21T12:34:06;7.20;99.90
16479;DHT22;8350;52.316;10.530;2023-11-21T12:36:37;7.30;99.90
16479;DHT22;8350;52.316;10.530;2023-11-21T12:39:04;7.30;99.90
16479;DHT22;8350;52.316;10.530;2023-11-21T12:41:31;7.30;99.90
16479;DHT22;8350;52.316;10.530;2023-11-21T12:43:58;7.30;99.90
16479;DHT22;8350;52.316;10.530;2023-11-21T12:46:28;7.30;99.90
16479;DHT22;8350;52.316;10.530;2023-11-21T12:49:02;7.20;99.90
16479;DHT22;8350;52.316;10.530;2023-11-21T12:51:29;7.00;99.90
16479;DHT22;8350;52.316;10.530;2023-11-21T12:54:03;6.90;99.90
16479;DHT22;8350;52.316;10.530;2023-11-21T12:56:30;7.00;99.90
16479;DHT22;8350;52.316;10.530;2023-11-21T12:58:58;6.90;99.90
16479;DHT22;8350;52.316;10.530;2023-11-21T13:01:28;6.90;99.90
16479;DHT22;8350;52.316;10.530;2023-11-21T13:03:57;6.90;99.90
16479;DHT22;8350;52.316;10.530;2023-11-21T13:06:25;6.80;99.90
16479;DHT22;8350;52.316;10.530;2023-11-21T13:08:52;6.90;99.90
16479;DHT22;8350;52.316;10.530;2023-11-21T13:11:22;6.90;99.90
16479;DHT22;8350;52.316;10.530;2023-11-21T13:13:51;6.90;99.90
16479;DHT22;8350;52.316;10.530;2023-11-21T13:16:19;6.90;99.90
16479;DHT22;8350;52.316;10.530;2023-11-21T13:18:48;6.90;99.90
16479;DHT22;8350;52.316;10.530;2023-11-21T13:21:15;6.80;99.90
16479;DHT22;8350;52.316;10.530;2023-11-21T13:23:43;6.80;99.90
16479;DHT22;8350;52.316;10.530;2023-11-21T13:26:12;6.80;99.90
16479;DHT22;8350;52.316;10.530;2023-11-21T13:28:40;6.80;99.90
16479;DHT22;8350;52.316;10.530;2023-11-21T13:31:11;6.70;99.90
16479;DHT22;8350;52.316;10.530;2023-11-21T13:33:48;6.70;99.90
16479;DHT22;8350;52.316;10.530;2023-11-21T13:36:21;6.60;99.90
16479;DHT22;8350;52.316;10.530;2023-11-21T13:38:51;6.60;99.90
16479;DHT22;8350;52.316;10.530;2023-11-21T13:41:19;6.60;99.90
16479;DHT22;8350;52.316;10.530;2023-11-21T13:43:48;6.60;99.90
16479;DHT22;8350;52.316;10.530;2023-11-21T13:46:22;6.60;99.90
16479;DHT22;8350;52.316;10.530;2023-11-21T13:48:53;6.60;99.90
16479;DHT22;8350;52.316;10.530;2023-11-21T13:51:21;6.60;99.90
16479;DHT22;8350;52.316;10.530;2023-11-21T13:53:56;6.50;99.90
16479;DHT22;8350;52.316;10.530;2023-11-21T13:56:24;6.40;99.90
16479;DHT22;8350;52.316;10.530;2023-11-21T13:58:54;6.40;99.90
16479;DHT22;8350;52.316;10.530;2023-11-21T14:01:22;6.50;99.90
16479;DHT22;8350;52.316;10.530;2023-11-21T14:04:14;6.50;99.90
16479;DHT22;8350;52.316;10.530;2023-11-21T14:06:56;6.40;99.90
16479;DHT22;8350;52.316;10.530;2023-11-21T14:09:26;6.40;99.90
16479;DHT22;8350;52.316;10.530;2023-11-21T14:12:01;6.40;99.90
16479;DHT22;8350;52.316;10.530;2023-11-21T14:14:38;6.50;99.90
16479;DHT22;8350;52.316;10.530;2023-11-21T14:17:05;6.50;99.90
16479;DHT22;8350;52.316;10.530;2023-11-21T14:19:34;6.50;99.90
16479;DHT22;8350;52.316;10.530;2023-11-21T14:22:06;6.40;99.90
16479;DHT22;8350;52.316;10.530;2023-11-21T14:24:35;6.30;99.90
16479;DHT22;8350;52.316;10.530;2023-11-21T14:27:02;6.30;99.90
16479;DHT22;8350;52.316;10.530;2023-11-21T14:29:31;6.20;99.90
16479;DHT22;8350;52.316;10.530;2023-11-21T14:32:02;6.20;99.90
16479;DHT22;8350;52.316;10.530;2023-11-21T14:34:35;6.20;99.90
16479;DHT22;8350;52.316;10.530;2023-11-21T14:37:02;6.20;99.90
16479;DHT22;8350;52.316;10.530;2023-11-21T14:39:29;6.20;99.90
16479;DHT22;8350;52.316;10.530;2023-11-21T14:42:00;6.20;99.90
16479;DHT22;8350;52.316;10.530;2023-11-21T14:44:28;6.20;99.90
16479;DHT22;8350;52.316;10.530;2023-11-21T14:47:01;6.20;99.90
16479;DHT22;8350;52.316;10.530;2023-11-21T14:49:33;6.10;99.90
16479;DHT22;8350;52.316;10.530;2023-11-21T14:52:15;6.10;99.90
16479;DHT22;8350;52.316;10.530;2023-11-21T14:54:57;6.10;99.90
16479;DHT22;8350;52.316;10.530;2023-11-21T14:57:45;6.10;99.90
16479;DHT22;8350;52.316;10.530;2023-11-21T15:00:16;6.00;99.90
16479;DHT22;8350;52.316;10.530;2023-11-21T15:03:07;6.00;99.90
16479;DHT22;8350;52.316;10.530;2023-11-21T15:05:36;5.90;99.90
16479;DHT22;8350;52.316;10.530;2023-11-21T15:08:05;5.90;99.90
16479;DHT22;8350;52.316;10.530;2023-11-21T15:10:45;5.90;99.90
16479;DHT22;8350;52.316;10.530;2023-11-21T15:13:13;5.90;99.90
16479;DHT22;8350;52.316;10.530;2023-11-21T15:15:40;5.80;99.90
16479;DHT22;8350;52.316;10.530;2023-11-21T15:18:08;5.80;99.90
16479;DHT22;8350;52.316;10.530;2023-11-21T15:20:39;5.80;99.90
16479;DHT22;8350;52.316;10.530;2023-11-21T15:23:06;5.70;99.90
16479;DHT22;8350;52.316;10.530;2023-11-21T15:25:35;5.70;99.90
16479;DHT22;8350;52.316;10.530;2023-11-21T15:28:02;5.70;99.90
16479;DHT22;8350;52.316;10.530;2023-11-21T15:30:30;5.70;99.90
16479;DHT22;8350;52.316;10.530;2023-11-21T15:32:57;5.60;99.90
16479;DHT22;8350;52.316;10.530;2023-11-21T15:35:24;5.60;99.90
16479;DHT22;8350;52.316;10.530;2023-11-21T15:37:54;5.60;99.90
16479;DHT22;8350;52.316;10.530;2023-11-21T15:40:24;5.60;99.90
16479;DHT22;8350;52.316;10.530;2023-11-21T15:42:51;5.60;99.90
16479;DHT22;8350;52.316;10.530;2023-11-21T15:45:18;5.60;99.90
16479;DHT22;8350;52.316;10.530;2023-11-21T15:47:49;5.60;99.90
16479;DHT22;8350;52.316;10.530;2023-11-21T15:50:24;5.50;99.90
16479;DHT22;8350;52.316;10.530;2023-11-21T15:52:51;5.50;99.90
16479;DHT22;8350;52.316;10.530;2023-11-21T15:55:21;5.50;99.90
16479;DHT22;8350;52.316;10.530;2023-11-21T15:57:54;5.50;99.90
16479;DHT22;8350;52.316;10.530;2023-11-21T16:00:21;5.50;99.90
16479;DHT22;8350;52.316;10.530;2023-11-21T16:02:49;5.50;99.90
16479;DHT22;8350;52.316;10.530;2023-11-21T16:05:22;5.50;99.90
16479;DHT22;8350;52.316;10.530;2023-11-21T16:07:51;5.50;99.90
16479;DHT22;8350;52.316;10.530;2023-11-21T16:10:18;5.40;99.90
16479;DHT22;8350;52.316;10.530;2023-11-21T16:12:47;5.40;99.90
16479;DHT22;8350;52.316;10.530;2023-11-21T16:15:15;5.40;99.90
16479;DHT22;8350;52.316;10.530;2023-11-21T16:17:46;5.40;99.90
16479;DHT22;8350;52.316;10.530;2023-11-21T16:20:13;5.30;99.90
16479;DHT22;8350;52.316;10.530;2023-11-21T16:22:43;5.30;99.90
16479;DHT22;8350;52.316;10.530;2023-11-21T16:25:10;5.30;99.90
16479;DHT22;8350;52.316;10.530;2023-11-21T16:27:40;5.30;99.90
16479;DHT22;8350;52.316;10.530;2023-11-21T16:30:10;5.30;99.90
16479;DHT22;8350;52.316;10.530;2023-11-21T16:32:37;5.30;99.90
16479;DHT22;8350;52.316;10.530;2023-11-21T16:35:05;5.30;99.90
16479;DHT22;8350;52.316;10.530;2023-11-21T16:37:32;5.20;99.90
16479;DHT22;8350;52.316;10.530;2023-11-21T16:39:59;5.20;99.90
16479;DHT22;8350;52.316;10.530;2023-11-21T16:42:26;5.20;99.90
16479;DHT22;8350;52.316;10.530;2023-11-21T16:44:57;5.20;99.90
16479;DHT22;8350;52.316;10.530;2023-11-21T16:47:33;5.20;99.90
16479;DHT22;8350;52.316;10.530;2023-11-21T16:50:03;5.20;99.90
16479;DHT22;8350;52.316;10.530;2023-11-21T16:52:31;5.20;99.90
16479;DHT22;8350;52.316;10.530;2023-11-21T16:55:04;5.20;99.90
16479;DHT22;8350;52.316;10.530;2023-11-21T16:57:31;5.30;99.90
16479;DHT22;8350;52.316;10.530;2023-11-21T16:59:58;5.30;99.90
16479;DHT22;8350;52.316;10.530;2023-11-21T17:02:26;5.30;99.90
16479;DHT22;8350;52.316;10.530;2023-11-21T17:04:56;5.30;99.90
16479;DHT22;8350;52.316;10.530;2023-11-21T17:07:24;5.20;99.90
16479;DHT22;8350;52.316;10.530;2023-11-21T17:09:51;5.20;99.90
16479;DHT22;8350;52.316;10.530;2023-11-21T17:12:18;5.20;99.90
16479;DHT22;8350;52.316;10.530;2023-11-21T17:14:47;5.20;99.90
16479;DHT22;8350;52.316;10.530;2023-11-21T17:17:14;5.20;99.90
16479;DHT22;8350;52.316;10.530;2023-11-21T17:19:43;5.10;99.90
16479;DHT22;8350;52.316;10.530;2023-11-21T17:22:11;5.20;99.90
16479;DHT22;8350;52.316;10.530;2023-11-21T17:24:38;5.20;99.90
16479;DHT22;8350;52.316;10.530;2023-11-21T17:27:12;5.10;99.90
16479;DHT22;8350;52.316;10.530;2023-11-21T17:29:39;5.20;99.90
16479;DHT22;8350;52.316;10.530;2023-11-21T17:32:06;5.10;99.90
16479;DHT22;8350;52.316;10.530;2023-11-21T17:34:37;5.10;99.90
16479;DHT22;8350;52.316;10.530;2023-11-21T17:37:06;5.00;99.90
16479;DHT22;8350;52.316;10.530;2023-11-21T17:39:33;5.00;99.90
16479;DHT22;8350;52.316;10.530;2023-11-21T17:42:02;4.90;99.90
16479;DHT22;8350;52.316;10.530;2023-11-21T17:44:30;4.90;99.90
16479;DHT22;8350;52.316;10.530;2023-11-21T17:46:59;4.80;99.90
16479;DHT22;8350;52.316;10.530;2023-11-21T17:49:27;4.80;99.90
16479;DHT22;8350;52.316;10.530;2023-11-21T17:51:54;4.70;99.90
16479;DHT22;8350;52.316;10.530;2023-11-21T17:57:28;4.60;99.90
16479;DHT22;8350;52.316;10.530;2023-11-21T18:00:00;4.60;99.90
16479;DHT22;8350;52.316;10.530;2023-11-21T18:02:33;4.60;99.90
16479;DHT22;8350;52.316;10.530;2023-11-21T18:05:08;4.50;99.90
16479;DHT22;8350;52.316;10.530;2023-11-21T18:07:38;4.60;99.90
16479;DHT22;8350;52.316;10.530;2023-11-21T18:10:07;4.60;99.90
16479;DHT22;8350;52.316;10.530;2023-11-21T18:12:35;4.60;99.90
16479;DHT22;8350;52.316;10.530;2023-11-21T18:15:03;4.60;99.90
16479;DHT22;8350;52.316;10.530;2023-11-21T18:17:30;4.60;99.90
16479;DHT22;8350;52.316;10.530;2023-11-21T18:19:57;4.60;99.90
16479;DHT22;8350;52.316;10.530;2023-11-21T18:22:24;4.60;99.90
16479;DHT22;8350;52.316;10.530;2023-11-21T18:24:52;4.60;99.90
16479;DHT22;8350;52.316;10.530;2023-11-21T18:27:21;4.60;99.90
16479;DHT22;8350;52.316;10.530;2023-11-21T18:29:53;4.50;99.90
16479;DHT22;8350;52.316;10.530;2023-11-21T18:32:20;4.50;99.90
16479;DHT22;8350;52.316;10.530;2023-11-21T18:34:48;4.50;99.90
16479;DHT22;8350;52.316;10.530;2023-11-21T18:37:16;4.60;99.90
16479;DHT22;8350;52.316;10.530;2023-11-21T18:39:44;4.60;99.90
16479;DHT22;8350;52.316;10.530;2023-11-21T18:42:10;4.60;99.90
16479;DHT22;8350;52.316;10.530;2023-11-21T18:44:42;4.60;99.90
16479;DHT22;8350;52.316;10.530;2023-11-21T18:47:09;4.50;99.90
16479;DHT22;8350;52.316;10.530;2023-11-21T18:49:37;4.50;99.90
16479;DHT22;8350;52.316;10.530;2023-11-21T18:52:05;4.50;99.90
16479;DHT22;8350;52.316;10.530;2023-11-21T18:54:32;4.50;99.90
16479;DHT22;8350;52.316;10.530;2023-11-21T18:56:59;4.50;99.90
16479;DHT22;8350;52.316;10.530;2023-11-21T18:59:26;4.50;99.90
16479;DHT22;8350;52.316;10.530;2023-11-21T19:01:54;4.40;99.90
16479;DHT22;8350;52.316;10.530;2023-11-21T19:04:21;4.40;99.90
16479;DHT22;8350;52.316;10.530;2023-11-21T19:06:50;4.40;99.90
16479;DHT22;8350;52.316;10.530;2023-11-21T19:09:18;4.50;99.90
16479;DHT22;8350;52.316;10.530;2023-11-21T19:11:44;4.40;99.90
16479;DHT22;8350;52.316;10.530;2023-11-21T19:14:12;4.40;99.90
16479;DHT22;8350;52.316;10.530;2023-11-21T19:16:42;4.40;99.90
16479;DHT22;8350;52.316;10.530;2023-11-21T19:19:12;4.40;99.90
16479;DHT22;8350;52.316;10.530;2023-11-21T19:21:39;4.40;99.90
16479;DHT22;8350;52.316;10.530;2023-11-21T19:24:07;4.30;99.90
16479;DHT22;8350;52.316;10.530;2023-11-21T19:26:37;4.30;99.90
16479;DHT22;8350;52.316;10.530;2023-11-21T19:29:04;4.30;99.90
16479;DHT22;8350;52.316;10.530;2023-11-21T19:31:31;4.30;99.90
16479;DHT22;8350;52.316;10.530;2023-11-21T19:33:58;4.30;99.90
16479;DHT22;8350;52.316;10.530;2023-11-21T19:36:26;4.30;99.90
16479;DHT22;8350;52.316;10.530;2023-11-21T19:38:53;4.30;99.90
16479;DHT22;8350;52.316;10.530;2023-11-21T19:41:20;4.20;99.90
16479;DHT22;8350;52.316;10.530;2023-11-21T19:43:48;4.20;99.90
16479;DHT22;8350;52.316;10.530;2023-11-21T19:46:16;4.20;99.90
16479;DHT22;8350;52.316;10.530;2023-11-21T19:48:43;4.20;99.90
16479;DHT22;8350;52.316;10.530;2023-11-21T19:51:11;4.20;99.90
16479;DHT22;8350;52.316;10.530;2023-11-21T19:53:40;4.10;99.90
16479;DHT22;8350;52.316;10.530;2023-11-21T19:56:07;4.10;99.90
16479;DHT22;8350;52.316;10.530;2023-11-21T19:58:35;4.10;99.90
16479;DHT22;8350;52.316;10.530;2023-11-21T20:01:01;4.10;99.90
16479;DHT22;8350;52.316;10.530;2023-11-21T20:03:29;4.10;99.90
16479;DHT22;8350;52.316;10.530;2023-11-21T20:05:57;4.10;99.90
16479;DHT22;8350;52.316;10.530;2023-11-21T20:08:25;4.10;99.90
16479;DHT22;8350;52.316;10.530;2023-11-21T20:10:53;4.10;99.90
16479;DHT22;8350;52.316;10.530;2023-11-21T20:13:20;4.00;99.90
16479;DHT22;8350;52.316;10.530;2023-11-21T20:15:47;4.00;99.90
16479;DHT22;8350;52.316;10.530;2023-11-21T20:18:14;4.00;99.90
16479;DHT22;8350;52.316;10.530;2023-11-21T20:20:41;4.00;99.90
16479;DHT22;8350;52.316;10.530;2023-11-21T20:23:08;4.00;99.90
16479;DHT22;8350;52.316;10.530;2023-11-21T20:25:35;4.00;99.90
16479;DHT22;8350;52.316;10.530;2023-11-21T20:28:04;4.00;99.90
16479;DHT22;8350;52.316;10.530;2023-11-21T20:30:33;3.90;99.90
16479;DHT22;8350;52.316;10.530;2023-11-21T20:33:06;3.90;99.90
16479;DHT22;8350;52.316;10.530;2023-11-21T20:35:33;3.90;99.90
16479;DHT22;8350;52.316;10.530;2023-11-21T20:38:02;3.90;99.90
16479;DHT22;8350;52.316;10.530;2023-11-21T20:40:28;3.90;99.90
16479;DHT22;8350;52.316;10.530;2023-11-21T20:42:56;3.90;99.90
16479;DHT22;8350;52.316;10.530;2023-11-21T20:45:29;3.90;99.90
16479;DHT22;8350;52.316;10.530;2023-11-21T20:47:56;3.80;99.90
16479;DHT22;8350;52.316;10.530;2023-11-21T20:50:23;3.80;99.90
16479;DHT22;8350;52.316;10.530;2023-11-21T20:52:50;3.80;99.90
16479;DHT22;8350;52.316;10.530;2023-11-21T20:55:18;3.80;99.90
16479;DHT22;8350;52.316;10.530;2023-11-21T20:57:47;3.80;99.90
16479;DHT22;8350;52.316;10.530;2023-11-21T21:03:09;3.80;99.90
16479;DHT22;8350;52.316;10.530;2023-11-21T21:05:40;3.80;99.90
16479;DHT22;8350;52.316;10.530;2023-11-21T21:08:09;3.80;99.90
16479;DHT22;8350;52.316;10.530;2023-11-21T21:10:41;3.80;99.90
16479;DHT22;8350;52.316;10.530;2023-11-21T21:13:07;3.80;99.90
16479;DHT22;8350;52.316;10.530;2023-11-21T21:15:37;3.80;99.90
16479;DHT22;8350;52.316;10.530;2023-11-21T21:18:15;3.70;99.90
16479;DHT22;8350;52.316;10.530;2023-11-21T21:20:48;3.70;99.90
16479;DHT22;8350;52.316;10.530;2023-11-21T21:23:19;3.70;99.90
16479;DHT22;8350;52.316;10.530;2023-11-21T21:25:46;3.70;99.90
16479;DHT22;8350;52.316;10.530;2023-11-21T21:28:19;3.70;99.90
16479;DHT22;8350;52.316;10.530;2023-11-21T21:30:48;3.70;99.90
16479;DHT22;8350;52.316;10.530;2023-11-21T21:33:21;3.70;99.90
16479;DHT22;8350;52.316;10.530;2023-11-21T21:36:03;3.60;99.90
16479;DHT22;8350;52.316;10.530;2023-11-21T21:38:31;3.60;99.90
16479;DHT22;8350;52.316;10.530;2023-11-21T21:40:58;3.60;99.90
16479;DHT22;8350;52.316;10.530;2023-11-21T21:43:30;3.50;99.90
16479;DHT22;8350;52.316;10.530;2023-11-21T21:45:57;3.50;99.90
16479;DHT22;8350;52.316;10.530;2023-11-21T21:48:25;3.40;99.90
16479;DHT22;8350;52.316;10.530;2023-11-21T21:50:54;3.40;99.90
16479;DHT22;8350;52.316;10.530;2023-11-21T21:53:24;3.40;99.90
16479;DHT22;8350;52.316;10.530;2023-11-21T21:55:51;3.30;99.90
16479;DHT22;8350;52.316;10.530;2023-11-21T21:58:20;3.30;99.90
16479;DHT22;8350;52.316;10.530;2023-11-21T22:00:49;3.30;99.90
16479;DHT22;8350;52.316;10.530;2023-11-21T22:03:16;3.40;99.90
16479;DHT22;8350;52.316;10.530;2023-11-21T22:05:46;3.30;99.90
16479;DHT22;8350;52.316;10.530;2023-11-21T22:08:36;3.30;99.90
16479;DHT22;8350;52.316;10.530;2023-11-21T22:11:03;3.30;99.90
16479;DHT22;8350;52.316;10.530;2023-11-21T22:13:30;3.30;99.90
16479;DHT22;8350;52.316;10.530;2023-11-21T22:15:57;3.30;99.90
16479;DHT22;8350;52.316;10.530;2023-11-21T22:18:24;3.30;99.90
16479;DHT22;8350;52.316;10.530;2023-11-21T22:20:54;3.40;99.90
16479;DHT22;8350;52.316;10.530;2023-11-21T22:23:21;3.30;99.90
16479;DHT22;8350;52.316;10.530;2023-11-21T22:26:02;3.30;99.90
16479;DHT22;8350;52.316;10.530;2023-11-21T22:28:31;3.30;99.90
16479;DHT22;8350;52.316;10.530;2023-11-21T22:31:00;3.30;99.90
16479;DHT22;8350;52.316;10.530;2023-11-21T22:33:37;3.30;99.90
16479;DHT22;8350;52.316;10.530;2023-11-21T22:36:15;3.30;99.90
16479;DHT22;8350;52.316;10.530;2023-11-21T22:38:43;3.30;99.90
16479;DHT22;8350;52.316;10.530;2023-11-21T22:41:10;3.40;99.90
16479;DHT22;8350;52.316;10.530;2023-11-21T22:43:36;3.30;99.90
16479;DHT22;8350;52.316;10.530;2023-11-21T22:46:04;3.20;99.90
16479;DHT22;8350;52.316;10.530;2023-11-21T22:48:32;3.20;99.90
16479;DHT22;8350;52.316;10.530;2023-11-21T22:51:01;3.10;99.90
16479;DHT22;8350;52.316;10.530;2023-11-21T22:53:32;3.10;99.90
16479;DHT22;8350;52.316;10.530;2023-11-21T22:56:14;3.10;99.90
16479;DHT22;8350;52.316;10.530;2023-11-21T22:59:02;3.00;99.90
16479;DHT22;8350;52.316;10.530;2023-11-21T23:01:29;3.00;99.90
16479;DHT22;8350;52.316;10.530;2023-11-21T23:03:59;3.00;99.90
16479;DHT22;8350;52.316;10.530;2023-11-21T23:06:32;2.90;99.90
16479;DHT22;8350;52.316;10.530;2023-11-21T23:09:04;2.90;99.90
16479;DHT22;8350;52.316;10.530;2023-11-21T23:11:31;2.90;99.90
16479;DHT22;8350;52.316;10.530;2023-11-21T23:14:12;2.80;99.90
16479;DHT22;8350;52.316;10.530;2023-11-21T23:16:45;2.80;99.90
16479;DHT22;8350;52.316;10.530;2023-11-21T23:19:28;2.70;99.90
16479;DHT22;8350;52.316;10.530;2023-11-21T23:21:56;2.70;99.90
16479;DHT22;8350;52.316;10.530;2023-11-21T23:24:25;2.70;99.90
16479;DHT22;8350;52.316;10.530;2023-11-21T23:26:52;2.70;99.90
16479;DHT22;8350;52.316;10.530;2023-11-21T23:29:19;2.70;99.90
16479;DHT22;8350;52.316;10.530;2023-11-21T23:31:48;2.70;99.90
16479;DHT22;8350;52.316;10.530;2023-11-21T23:34:18;2.70;99.90
16479;DHT22;8350;52.316;10.530;2023-11-21T23:36:49;2.70;99.90
16479;DHT22;8350;52.316;10.530;2023-11-21T23:39:19;2.80;99.90
16479;DHT22;8350;52.316;10.530;2023-11-21T23:42:06;2.70;99.90
16479;DHT22;8350;52.316;10.530;2023-11-21T23:44:35;2.70;99.90
16479;DHT22;8350;52.316;10.530;2023-11-21T23:47:02;2.70;99.90
16479;DHT22;8350;52.316;10.530;2023-11-21T23:49:29;2.80;99.90
16479;DHT22;8350;52.316;10.530;2023-11-21T23:51:58;2.70;99.90
16479;DHT22;8350;52.316;10.530;2023-11-21T23:54:26;2.70;99.90
16479;DHT22;8350;52.316;10.530;2023-11-21T23:56:54;2.70;99.90
16479;DHT22;8350;52.316;10.530;2023-11-21T23:59:23;2.80;99.90
